Terminal Aerodrome Forecast
Issued by NWS

Home | Current Version | Previous Version | Graphics & Text | Print | Product List | Glossary On
Versions: 1 2 3 4 5 6 7 8 9 10 11 12 13 14 15 16
000
FTUS43 KGRB 220500
TAFMTW
TAF
KMTW 220536Z 2206/2306 20012G16KT P6SM SCT012 OVC020 WS015/23040KT
      TEMPO 2208/2210 5SM -FZDZ BR SCT009 OVC012
     FM221000 21009KT 5SM -FZDZ BR SCT008 OVC010 WS015/24035KT
     FM221500 21009KT 5SM -DZ BR OVC012
     FM221800 20007KT 6SM BR BKN015
     FM230000 20050KT 5SM -DZ BR OVC012=

USA.gov is the U.S. government's official web portal to all federal, state and local government web resources and services.